<?xml version="1.0" encoding="UTF-8" standalone="no" ?>
<gpx xmlns="http://www.topografix.com/GPX/1/1" xmlns:xsi="http://www.w3.org/2001/XMLSchema-instance" xsi:schemaLocation="http://www.topografix.com/GPX/1/1 http://www.topografix.com/GPX/1/1/gpx.xsd" version="1.1" creator="VisuGPX - https://www.visugpx.com">
  <metadata>
    <name>Etang des Marais</name>
    <desc><![CDATA[Puttelange aux Lacs. Un des lacs de la ligne Maginot.]]></desc>
  </metadata>
  <trk>
    <name><![CDATA[MARAEIS20 05:38:44 PM]]></name>
    <trkseg>
      <trkpt lat="49.02796" lon="6.92583">
        <ele>239.02</ele>
        <time>2020-05-21T13:41:31Z</time>
      </trkpt>
      <trkpt lat="49.02801" lon="6.92589">
        <ele>239.51</ele>
        <time>2020-05-21T13:41:46Z</time>
      </trkpt>
      <trkpt lat="49.02801" lon="6.92589">
        <ele>239.02</ele>
        <time>2020-05-21T13:42:01Z</time>
      </trkpt>
      <trkpt lat="49.02798" lon="6.92587">
        <ele>238.54</ele>
        <time>2020-05-21T13:42:16Z</time>
      </trkpt>
      <trkpt lat="49.028" lon="6.92581">
        <ele>239.02</ele>
        <time>2020-05-21T13:42:31Z</time>
      </trkpt>
      <trkpt lat="49.02797" lon="6.92578">
        <ele>239.51</ele>
        <time>2020-05-21T13:42:46Z</time>
      </trkpt>
      <trkpt lat="49.02789" lon="6.9256">
        <ele>238.54</ele>
        <time>2020-05-21T13:43:01Z</time>
      </trkpt>
      <trkpt lat="49.02782" lon="6.92542">
        <ele>238.06</ele>
        <time>2020-05-21T13:43:16Z</time>
      </trkpt>
      <trkpt lat="49.02772" lon="6.92524">
        <ele>237.1</ele>
        <time>2020-05-21T13:43:31Z</time>
      </trkpt>
      <trkpt lat="49.0276" lon="6.92508">
        <ele>235.66</ele>
        <time>2020-05-21T13:43:46Z</time>
      </trkpt>
      <trkpt lat="49.02747" lon="6.92494">
        <ele>234.22</ele>
        <time>2020-05-21T13:44:01Z</time>
      </trkpt>
      <trkpt lat="49.02734" lon="6.92478">
        <ele>234.7</ele>
        <time>2020-05-21T13:44:16Z</time>
      </trkpt>
      <trkpt lat="49.0272" lon="6.92462">
        <ele>234.7</ele>
        <time>2020-05-21T13:44:31Z</time>
      </trkpt>
      <trkpt lat="49.02723" lon="6.92435">
        <ele>233.74</ele>
        <time>2020-05-21T13:44:46Z</time>
      </trkpt>
      <trkpt lat="49.02731" lon="6.92424">
        <ele>233.26</ele>
        <time>2020-05-21T13:45:01Z</time>
      </trkpt>
      <trkpt lat="49.02741" lon="6.92407">
        <ele>233.74</ele>
        <time>2020-05-21T13:45:16Z</time>
      </trkpt>
      <trkpt lat="49.02751" lon="6.92386">
        <ele>232.78</ele>
        <time>2020-05-21T13:45:31Z</time>
      </trkpt>
      <trkpt lat="49.02761" lon="6.92373">
        <ele>232.3</ele>
        <time>2020-05-21T13:45:46Z</time>
      </trkpt>
      <trkpt lat="49.02769" lon="6.9236">
        <ele>231.81</ele>
        <time>2020-05-21T13:46:01Z</time>
      </trkpt>
      <trkpt lat="49.02779" lon="6.92338">
        <ele>231.81</ele>
        <time>2020-05-21T13:46:16Z</time>
      </trkpt>
      <trkpt lat="49.0279" lon="6.92321">
        <ele>231.81</ele>
        <time>2020-05-21T13:46:31Z</time>
      </trkpt>
      <trkpt lat="49.02795" lon="6.92309">
        <ele>231.33</ele>
        <time>2020-05-21T13:46:46Z</time>
      </trkpt>
      <trkpt lat="49.02796" lon="6.92302">
        <ele>230.85</ele>
        <time>2020-05-21T13:47:01Z</time>
      </trkpt>
      <trkpt lat="49.02791" lon="6.92281">
        <ele>230.85</ele>
        <time>2020-05-21T13:47:16Z</time>
      </trkpt>
      <trkpt lat="49.0278" lon="6.92263">
        <ele>230.85</ele>
        <time>2020-05-21T13:47:31Z</time>
      </trkpt>
      <trkpt lat="49.02778" lon="6.92243">
        <ele>230.85</ele>
        <time>2020-05-21T13:47:46Z</time>
      </trkpt>
      <trkpt lat="49.02777" lon="6.92238">
        <ele>229.89</ele>
        <time>2020-05-21T13:48:01Z</time>
      </trkpt>
      <trkpt lat="49.02763" lon="6.92248">
        <ele>230.37</ele>
        <time>2020-05-21T13:48:16Z</time>
      </trkpt>
      <trkpt lat="49.02749" lon="6.92254">
        <ele>230.37</ele>
        <time>2020-05-21T13:48:31Z</time>
      </trkpt>
      <trkpt lat="49.02735" lon="6.92258">
        <ele>230.37</ele>
        <time>2020-05-21T13:48:46Z</time>
      </trkpt>
      <trkpt lat="49.02718" lon="6.92265">
        <ele>230.37</ele>
        <time>2020-05-21T13:49:01Z</time>
      </trkpt>
      <trkpt lat="49.02705" lon="6.92268">
        <ele>230.85</ele>
        <time>2020-05-21T13:49:16Z</time>
      </trkpt>
      <trkpt lat="49.02702" lon="6.92266">
        <ele>230.37</ele>
        <time>2020-05-21T13:49:31Z</time>
      </trkpt>
      <trkpt lat="49.02698" lon="6.92266">
        <ele>230.37</ele>
        <time>2020-05-21T13:49:46Z</time>
      </trkpt>
      <trkpt lat="49.02696" lon="6.92265">
        <ele>230.85</ele>
        <time>2020-05-21T13:50:01Z</time>
      </trkpt>
      <trkpt lat="49.02696" lon="6.92267">
        <ele>230.37</ele>
        <time>2020-05-21T13:50:16Z</time>
      </trkpt>
      <trkpt lat="49.02692" lon="6.92267">
        <ele>230.37</ele>
        <time>2020-05-21T13:50:31Z</time>
      </trkpt>
      <trkpt lat="49.02689" lon="6.92263">
        <ele>229.89</ele>
        <time>2020-05-21T13:50:46Z</time>
      </trkpt>
      <trkpt lat="49.02683" lon="6.92266">
        <ele>229.89</ele>
        <time>2020-05-21T13:51:01Z</time>
      </trkpt>
      <trkpt lat="49.02682" lon="6.92254">
        <ele>229.89</ele>
        <time>2020-05-21T13:51:16Z</time>
      </trkpt>
      <trkpt lat="49.0268" lon="6.92252">
        <ele>229.89</ele>
        <time>2020-05-21T13:51:31Z</time>
      </trkpt>
      <trkpt lat="49.02675" lon="6.92254">
        <ele>230.37</ele>
        <time>2020-05-21T13:51:46Z</time>
      </trkpt>
      <trkpt lat="49.02663" lon="6.92244">
        <ele>230.37</ele>
        <time>2020-05-21T13:52:01Z</time>
      </trkpt>
      <trkpt lat="49.02653" lon="6.92228">
        <ele>230.37</ele>
        <time>2020-05-21T13:52:16Z</time>
      </trkpt>
      <trkpt lat="49.02647" lon="6.92205">
        <ele>230.37</ele>
        <time>2020-05-21T13:52:31Z</time>
      </trkpt>
      <trkpt lat="49.02641" lon="6.92185">
        <ele>230.37</ele>
        <time>2020-05-21T13:52:46Z</time>
      </trkpt>
      <trkpt lat="49.02635" lon="6.92163">
        <ele>229.89</ele>
        <time>2020-05-21T13:53:01Z</time>
      </trkpt>
      <trkpt lat="49.02639" lon="6.9215">
        <ele>230.37</ele>
        <time>2020-05-21T13:53:16Z</time>
      </trkpt>
      <trkpt lat="49.0264" lon="6.92144">
        <ele>230.37</ele>
        <time>2020-05-21T13:53:31Z</time>
      </trkpt>
      <trkpt lat="49.02639" lon="6.92151">
        <ele>229.89</ele>
        <time>2020-05-21T13:53:46Z</time>
      </trkpt>
      <trkpt lat="49.0263" lon="6.92146">
        <ele>230.37</ele>
        <time>2020-05-21T13:54:01Z</time>
      </trkpt>
      <trkpt lat="49.02623" lon="6.92124">
        <ele>230.37</ele>
        <time>2020-05-21T13:54:16Z</time>
      </trkpt>
      <trkpt lat="49.02612" lon="6.92103">
        <ele>230.37</ele>
        <time>2020-05-21T13:54:31Z</time>
      </trkpt>
      <trkpt lat="49.02603" lon="6.92086">
        <ele>230.37</ele>
        <time>2020-05-21T13:54:46Z</time>
      </trkpt>
      <trkpt lat="49.02593" lon="6.92064">
        <ele>230.85</ele>
        <time>2020-05-21T13:55:01Z</time>
      </trkpt>
      <trkpt lat="49.02584" lon="6.92046">
        <ele>230.37</ele>
        <time>2020-05-21T13:55:16Z</time>
      </trkpt>
      <trkpt lat="49.02574" lon="6.92026">
        <ele>230.37</ele>
        <time>2020-05-21T13:55:31Z</time>
      </trkpt>
      <trkpt lat="49.02566" lon="6.92008">
        <ele>230.37</ele>
        <time>2020-05-21T13:55:46Z</time>
      </trkpt>
      <trkpt lat="49.02559" lon="6.91988">
        <ele>230.85</ele>
        <time>2020-05-21T13:56:01Z</time>
      </trkpt>
      <trkpt lat="49.02552" lon="6.91969">
        <ele>230.85</ele>
        <time>2020-05-21T13:56:16Z</time>
      </trkpt>
      <trkpt lat="49.02542" lon="6.91949">
        <ele>230.85</ele>
        <time>2020-05-21T13:56:31Z</time>
      </trkpt>
      <trkpt lat="49.02532" lon="6.9193">
        <ele>230.85</ele>
        <time>2020-05-21T13:56:46Z</time>
      </trkpt>
      <trkpt lat="49.02528" lon="6.9192">
        <ele>231.33</ele>
        <time>2020-05-21T13:57:01Z</time>
      </trkpt>
      <trkpt lat="49.02518" lon="6.91903">
        <ele>231.81</ele>
        <time>2020-05-21T13:57:16Z</time>
      </trkpt>
      <trkpt lat="49.0251" lon="6.91884">
        <ele>232.3</ele>
        <time>2020-05-21T13:57:31Z</time>
      </trkpt>
      <trkpt lat="49.02513" lon="6.91863">
        <ele>231.33</ele>
        <time>2020-05-21T13:57:46Z</time>
      </trkpt>
      <trkpt lat="49.02516" lon="6.91846">
        <ele>229.89</ele>
        <time>2020-05-21T13:58:01Z</time>
      </trkpt>
      <trkpt lat="49.02516" lon="6.91837">
        <ele>229.89</ele>
        <time>2020-05-21T13:58:16Z</time>
      </trkpt>
      <trkpt lat="49.02512" lon="6.91847">
        <ele>230.37</ele>
        <time>2020-05-21T13:58:31Z</time>
      </trkpt>
      <trkpt lat="49.02501" lon="6.91841">
        <ele>231.33</ele>
        <time>2020-05-21T13:58:46Z</time>
      </trkpt>
      <trkpt lat="49.0249" lon="6.91832">
        <ele>231.81</ele>
        <time>2020-05-21T13:59:01Z</time>
      </trkpt>
      <trkpt lat="49.02478" lon="6.91817">
        <ele>232.3</ele>
        <time>2020-05-21T13:59:16Z</time>
      </trkpt>
      <trkpt lat="49.02469" lon="6.91799">
        <ele>232.3</ele>
        <time>2020-05-21T13:59:31Z</time>
      </trkpt>
      <trkpt lat="49.0246" lon="6.9178">
        <ele>231.81</ele>
        <time>2020-05-21T13:59:46Z</time>
      </trkpt>
      <trkpt lat="49.02449" lon="6.91759">
        <ele>231.81</ele>
        <time>2020-05-21T14:00:01Z</time>
      </trkpt>
      <trkpt lat="49.02442" lon="6.91739">
        <ele>231.81</ele>
        <time>2020-05-21T14:00:16Z</time>
      </trkpt>
      <trkpt lat="49.02441" lon="6.91716">
        <ele>231.33</ele>
        <time>2020-05-21T14:00:31Z</time>
      </trkpt>
      <trkpt lat="49.02441" lon="6.91694">
        <ele>231.33</ele>
        <time>2020-05-21T14:00:46Z</time>
      </trkpt>
      <trkpt lat="49.02441" lon="6.91672">
        <ele>231.33</ele>
        <time>2020-05-21T14:01:01Z</time>
      </trkpt>
      <trkpt lat="49.0245" lon="6.91658">
        <ele>231.33</ele>
        <time>2020-05-21T14:01:16Z</time>
      </trkpt>
      <trkpt lat="49.02457" lon="6.91658">
        <ele>231.33</ele>
        <time>2020-05-21T14:01:31Z</time>
      </trkpt>
      <trkpt lat="49.02467" lon="6.91664">
        <ele>231.33</ele>
        <time>2020-05-21T14:01:46Z</time>
      </trkpt>
      <trkpt lat="49.0248" lon="6.91673">
        <ele>231.81</ele>
        <time>2020-05-21T14:02:01Z</time>
      </trkpt>
      <trkpt lat="49.025" lon="6.91691">
        <ele>232.3</ele>
        <time>2020-05-21T14:02:16Z</time>
      </trkpt>
      <trkpt lat="49.02509" lon="6.91707">
        <ele>231.81</ele>
        <time>2020-05-21T14:02:31Z</time>
      </trkpt>
      <trkpt lat="49.02517" lon="6.91725">
        <ele>231.81</ele>
        <time>2020-05-21T14:02:46Z</time>
      </trkpt>
      <trkpt lat="49.02528" lon="6.9174">
        <ele>231.33</ele>
        <time>2020-05-21T14:03:01Z</time>
      </trkpt>
      <trkpt lat="49.02537" lon="6.91759">
        <ele>231.33</ele>
        <time>2020-05-21T14:03:16Z</time>
      </trkpt>
      <trkpt lat="49.02549" lon="6.91775">
        <ele>230.85</ele>
        <time>2020-05-21T14:03:31Z</time>
      </trkpt>
      <trkpt lat="49.02558" lon="6.91792">
        <ele>230.37</ele>
        <time>2020-05-21T14:03:46Z</time>
      </trkpt>
      <trkpt lat="49.0257" lon="6.91799">
        <ele>230.85</ele>
        <time>2020-05-21T14:04:01Z</time>
      </trkpt>
      <trkpt lat="49.02574" lon="6.91801">
        <ele>230.85</ele>
        <time>2020-05-21T14:04:16Z</time>
      </trkpt>
      <trkpt lat="49.02581" lon="6.91809">
        <ele>230.85</ele>
        <time>2020-05-21T14:04:31Z</time>
      </trkpt>
      <trkpt lat="49.02603" lon="6.91821">
        <ele>230.37</ele>
        <time>2020-05-21T14:04:46Z</time>
      </trkpt>
      <trkpt lat="49.02619" lon="6.91832">
        <ele>230.85</ele>
        <time>2020-05-21T14:05:01Z</time>
      </trkpt>
      <trkpt lat="49.02622" lon="6.91839">
        <ele>230.37</ele>
        <time>2020-05-21T14:05:16Z</time>
      </trkpt>
      <trkpt lat="49.02613" lon="6.91853">
        <ele>229.89</ele>
        <time>2020-05-21T14:05:31Z</time>
      </trkpt>
      <trkpt lat="49.02612" lon="6.91862">
        <ele>230.37</ele>
        <time>2020-05-21T14:05:46Z</time>
      </trkpt>
      <trkpt lat="49.02623" lon="6.91842">
        <ele>230.37</ele>
        <time>2020-05-21T14:06:01Z</time>
      </trkpt>
      <trkpt lat="49.02642" lon="6.91838">
        <ele>230.85</ele>
        <time>2020-05-21T14:06:16Z</time>
      </trkpt>
      <trkpt lat="49.02662" lon="6.91832">
        <ele>231.33</ele>
        <time>2020-05-21T14:06:31Z</time>
      </trkpt>
      <trkpt lat="49.02676" lon="6.91828">
        <ele>230.85</ele>
        <time>2020-05-21T14:06:46Z</time>
      </trkpt>
      <trkpt lat="49.02692" lon="6.91826">
        <ele>230.85</ele>
        <time>2020-05-21T14:07:01Z</time>
      </trkpt>
      <trkpt lat="49.02702" lon="6.91825">
        <ele>230.85</ele>
        <time>2020-05-21T14:07:16Z</time>
      </trkpt>
      <trkpt lat="49.02717" lon="6.91814">
        <ele>230.85</ele>
        <time>2020-05-21T14:07:31Z</time>
      </trkpt>
      <trkpt lat="49.02727" lon="6.91803">
        <ele>231.33</ele>
        <time>2020-05-21T14:07:46Z</time>
      </trkpt>
      <trkpt lat="49.02737" lon="6.91804">
        <ele>231.81</ele>
        <time>2020-05-21T14:08:01Z</time>
      </trkpt>
      <trkpt lat="49.02747" lon="6.91795">
        <ele>231.33</ele>
        <time>2020-05-21T14:08:16Z</time>
      </trkpt>
      <trkpt lat="49.02756" lon="6.91782">
        <ele>231.33</ele>
        <time>2020-05-21T14:08:31Z</time>
      </trkpt>
      <trkpt lat="49.02768" lon="6.91766">
        <ele>231.33</ele>
        <time>2020-05-21T14:08:46Z</time>
      </trkpt>
      <trkpt lat="49.02779" lon="6.9175">
        <ele>230.85</ele>
        <time>2020-05-21T14:09:01Z</time>
      </trkpt>
      <trkpt lat="49.02784" lon="6.91732">
        <ele>230.85</ele>
        <time>2020-05-21T14:09:16Z</time>
      </trkpt>
      <trkpt lat="49.02785" lon="6.91732">
        <ele>230.37</ele>
        <time>2020-05-21T14:09:31Z</time>
      </trkpt>
      <trkpt lat="49.02783" lon="6.91717">
        <ele>230.85</ele>
        <time>2020-05-21T14:09:46Z</time>
      </trkpt>
      <trkpt lat="49.02779" lon="6.91697">
        <ele>231.33</ele>
        <time>2020-05-21T14:10:01Z</time>
      </trkpt>
      <trkpt lat="49.02783" lon="6.91669">
        <ele>230.85</ele>
        <time>2020-05-21T14:10:16Z</time>
      </trkpt>
      <trkpt lat="49.02788" lon="6.91646">
        <ele>230.85</ele>
        <time>2020-05-21T14:10:31Z</time>
      </trkpt>
      <trkpt lat="49.02794" lon="6.91623">
        <ele>231.33</ele>
        <time>2020-05-21T14:10:46Z</time>
      </trkpt>
      <trkpt lat="49.02798" lon="6.91602">
        <ele>231.33</ele>
        <time>2020-05-21T14:11:01Z</time>
      </trkpt>
      <trkpt lat="49.028" lon="6.91581">
        <ele>230.85</ele>
        <time>2020-05-21T14:11:16Z</time>
      </trkpt>
      <trkpt lat="49.02793" lon="6.91562">
        <ele>230.37</ele>
        <time>2020-05-21T14:11:31Z</time>
      </trkpt>
      <trkpt lat="49.02786" lon="6.91548">
        <ele>231.33</ele>
        <time>2020-05-21T14:11:46Z</time>
      </trkpt>
      <trkpt lat="49.0278" lon="6.91534">
        <ele>231.33</ele>
        <time>2020-05-21T14:12:01Z</time>
      </trkpt>
      <trkpt lat="49.0278" lon="6.91526">
        <ele>231.33</ele>
        <time>2020-05-21T14:12:16Z</time>
      </trkpt>
      <trkpt lat="49.02776" lon="6.91523">
        <ele>231.81</ele>
        <time>2020-05-21T14:12:31Z</time>
      </trkpt>
      <trkpt lat="49.02768" lon="6.91512">
        <ele>231.33</ele>
        <time>2020-05-21T14:12:46Z</time>
      </trkpt>
      <trkpt lat="49.02761" lon="6.91496">
        <ele>230.85</ele>
        <time>2020-05-21T14:13:01Z</time>
      </trkpt>
      <trkpt lat="49.02761" lon="6.91476">
        <ele>229.89</ele>
        <time>2020-05-21T14:13:16Z</time>
      </trkpt>
      <trkpt lat="49.02771" lon="6.91461">
        <ele>229.89</ele>
        <time>2020-05-21T14:13:31Z</time>
      </trkpt>
      <trkpt lat="49.0278" lon="6.91473">
        <ele>230.37</ele>
        <time>2020-05-21T14:13:46Z</time>
      </trkpt>
      <trkpt lat="49.02782" lon="6.91481">
        <ele>229.41</ele>
        <time>2020-05-21T14:14:01Z</time>
      </trkpt>
      <trkpt lat="49.02796" lon="6.9148">
        <ele>230.37</ele>
        <time>2020-05-21T14:14:16Z</time>
      </trkpt>
      <trkpt lat="49.0281" lon="6.91476">
        <ele>230.37</ele>
        <time>2020-05-21T14:14:31Z</time>
      </trkpt>
      <trkpt lat="49.02819" lon="6.91461">
        <ele>230.37</ele>
        <time>2020-05-21T14:14:46Z</time>
      </trkpt>
      <trkpt lat="49.02825" lon="6.91443">
        <ele>230.85</ele>
        <time>2020-05-21T14:15:01Z</time>
      </trkpt>
      <trkpt lat="49.0283" lon="6.91423">
        <ele>229.89</ele>
        <time>2020-05-21T14:15:16Z</time>
      </trkpt>
      <trkpt lat="49.02836" lon="6.91402">
        <ele>229.89</ele>
        <time>2020-05-21T14:15:31Z</time>
      </trkpt>
      <trkpt lat="49.0285" lon="6.91392">
        <ele>229.41</ele>
        <time>2020-05-21T14:15:46Z</time>
      </trkpt>
      <trkpt lat="49.02868" lon="6.91379">
        <ele>229.89</ele>
        <time>2020-05-21T14:16:01Z</time>
      </trkpt>
      <trkpt lat="49.02878" lon="6.9137">
        <ele>229.41</ele>
        <time>2020-05-21T14:16:16Z</time>
      </trkpt>
      <trkpt lat="49.0289" lon="6.91357">
        <ele>229.89</ele>
        <time>2020-05-21T14:16:31Z</time>
      </trkpt>
      <trkpt lat="49.029" lon="6.9134">
        <ele>228.93</ele>
        <time>2020-05-21T14:16:46Z</time>
      </trkpt>
      <trkpt lat="49.02906" lon="6.91325">
        <ele>228.45</ele>
        <time>2020-05-21T14:17:01Z</time>
      </trkpt>
      <trkpt lat="49.0291" lon="6.91328">
        <ele>227.97</ele>
        <time>2020-05-21T14:17:16Z</time>
      </trkpt>
      <trkpt lat="49.02914" lon="6.91328">
        <ele>228.45</ele>
        <time>2020-05-21T14:17:31Z</time>
      </trkpt>
      <trkpt lat="49.02914" lon="6.91329">
        <ele>228.45</ele>
        <time>2020-05-21T14:17:46Z</time>
      </trkpt>
      <trkpt lat="49.02907" lon="6.9133">
        <ele>228.45</ele>
        <time>2020-05-21T14:18:01Z</time>
      </trkpt>
      <trkpt lat="49.02903" lon="6.91311">
        <ele>228.93</ele>
        <time>2020-05-21T14:18:16Z</time>
      </trkpt>
      <trkpt lat="49.02902" lon="6.91288">
        <ele>229.41</ele>
        <time>2020-05-21T14:18:31Z</time>
      </trkpt>
      <trkpt lat="49.02897" lon="6.91267">
        <ele>230.37</ele>
        <time>2020-05-21T14:18:46Z</time>
      </trkpt>
      <trkpt lat="49.02895" lon="6.91241">
        <ele>231.81</ele>
        <time>2020-05-21T14:19:01Z</time>
      </trkpt>
      <trkpt lat="49.02897" lon="6.91217">
        <ele>230.85</ele>
        <time>2020-05-21T14:19:16Z</time>
      </trkpt>
      <trkpt lat="49.02898" lon="6.91191">
        <ele>230.85</ele>
        <time>2020-05-21T14:19:31Z</time>
      </trkpt>
      <trkpt lat="49.02895" lon="6.91172">
        <ele>229.41</ele>
        <time>2020-05-21T14:19:46Z</time>
      </trkpt>
      <trkpt lat="49.02894" lon="6.91151">
        <ele>229.41</ele>
        <time>2020-05-21T14:20:01Z</time>
      </trkpt>
      <trkpt lat="49.02886" lon="6.91132">
        <ele>229.41</ele>
        <time>2020-05-21T14:20:16Z</time>
      </trkpt>
      <trkpt lat="49.02877" lon="6.9111">
        <ele>229.41</ele>
        <time>2020-05-21T14:20:31Z</time>
      </trkpt>
      <trkpt lat="49.0287" lon="6.91093">
        <ele>230.37</ele>
        <time>2020-05-21T14:20:46Z</time>
      </trkpt>
      <trkpt lat="49.02873" lon="6.91089">
        <ele>229.41</ele>
        <time>2020-05-21T14:21:01Z</time>
      </trkpt>
      <trkpt lat="49.02866" lon="6.91077">
        <ele>229.89</ele>
        <time>2020-05-21T14:21:16Z</time>
      </trkpt>
      <trkpt lat="49.02862" lon="6.91052">
        <ele>229.41</ele>
        <time>2020-05-21T14:21:31Z</time>
      </trkpt>
      <trkpt lat="49.02869" lon="6.91027">
        <ele>229.41</ele>
        <time>2020-05-21T14:21:46Z</time>
      </trkpt>
      <trkpt lat="49.02884" lon="6.91019">
        <ele>228.93</ele>
        <time>2020-05-21T14:22:01Z</time>
      </trkpt>
      <trkpt lat="49.02901" lon="6.91014">
        <ele>229.41</ele>
        <time>2020-05-21T14:22:16Z</time>
      </trkpt>
      <trkpt lat="49.02919" lon="6.91023">
        <ele>229.89</ele>
        <time>2020-05-21T14:22:31Z</time>
      </trkpt>
      <trkpt lat="49.02929" lon="6.91029">
        <ele>229.89</ele>
        <time>2020-05-21T14:22:46Z</time>
      </trkpt>
      <trkpt lat="49.02925" lon="6.91033">
        <ele>230.37</ele>
        <time>2020-05-21T14:23:01Z</time>
      </trkpt>
      <trkpt lat="49.02935" lon="6.9104">
        <ele>230.37</ele>
        <time>2020-05-21T14:23:16Z</time>
      </trkpt>
      <trkpt lat="49.02948" lon="6.91037">
        <ele>230.37</ele>
        <time>2020-05-21T14:23:31Z</time>
      </trkpt>
      <trkpt lat="49.0296" lon="6.91022">
        <ele>229.89</ele>
        <time>2020-05-21T14:23:46Z</time>
      </trkpt>
      <trkpt lat="49.02967" lon="6.90997">
        <ele>229.89</ele>
        <time>2020-05-21T14:24:01Z</time>
      </trkpt>
      <trkpt lat="49.0297" lon="6.90973">
        <ele>229.41</ele>
        <time>2020-05-21T14:24:16Z</time>
      </trkpt>
      <trkpt lat="49.02971" lon="6.90951">
        <ele>229.41</ele>
        <time>2020-05-21T14:24:31Z</time>
      </trkpt>
      <trkpt lat="49.02975" lon="6.90928">
        <ele>228.93</ele>
        <time>2020-05-21T14:24:46Z</time>
      </trkpt>
      <trkpt lat="49.02978" lon="6.90907">
        <ele>228.93</ele>
        <time>2020-05-21T14:25:01Z</time>
      </trkpt>
      <trkpt lat="49.0298" lon="6.90885">
        <ele>228.45</ele>
        <time>2020-05-21T14:25:16Z</time>
      </trkpt>
      <trkpt lat="49.02981" lon="6.9087">
        <ele>229.41</ele>
        <time>2020-05-21T14:25:31Z</time>
      </trkpt>
      <trkpt lat="49.02978" lon="6.90872">
        <ele>229.41</ele>
        <time>2020-05-21T14:25:46Z</time>
      </trkpt>
      <trkpt lat="49.02978" lon="6.90871">
        <ele>229.41</ele>
        <time>2020-05-21T14:26:01Z</time>
      </trkpt>
      <trkpt lat="49.02977" lon="6.90869">
        <ele>229.41</ele>
        <time>2020-05-21T14:26:16Z</time>
      </trkpt>
      <trkpt lat="49.0298" lon="6.90865">
        <ele>229.41</ele>
        <time>2020-05-21T14:26:31Z</time>
      </trkpt>
      <trkpt lat="49.02979" lon="6.90864">
        <ele>228.93</ele>
        <time>2020-05-21T14:26:46Z</time>
      </trkpt>
      <trkpt lat="49.02977" lon="6.90863">
        <ele>229.41</ele>
        <time>2020-05-21T14:27:01Z</time>
      </trkpt>
      <trkpt lat="49.02979" lon="6.90886">
        <ele>228.93</ele>
        <time>2020-05-21T14:27:16Z</time>
      </trkpt>
      <trkpt lat="49.02976" lon="6.90891">
        <ele>229.41</ele>
        <time>2020-05-21T14:27:31Z</time>
      </trkpt>
      <trkpt lat="49.02979" lon="6.90887">
        <ele>228.93</ele>
        <time>2020-05-21T14:27:46Z</time>
      </trkpt>
      <trkpt lat="49.0298" lon="6.90886">
        <ele>228.93</ele>
        <time>2020-05-21T14:28:01Z</time>
      </trkpt>
      <trkpt lat="49.02982" lon="6.90885">
        <ele>228.93</ele>
        <time>2020-05-21T14:28:16Z</time>
      </trkpt>
      <trkpt lat="49.02983" lon="6.90886">
        <ele>228.93</ele>
        <time>2020-05-21T14:28:31Z</time>
      </trkpt>
      <trkpt lat="49.02986" lon="6.90887">
        <ele>229.41</ele>
        <time>2020-05-21T14:28:46Z</time>
      </trkpt>
      <trkpt lat="49.02987" lon="6.9089">
        <ele>228.93</ele>
        <time>2020-05-21T14:29:01Z</time>
      </trkpt>
      <trkpt lat="49.02985" lon="6.90889">
        <ele>228.93</ele>
        <time>2020-05-21T14:29:16Z</time>
      </trkpt>
      <trkpt lat="49.02984" lon="6.90887">
        <ele>229.41</ele>
        <time>2020-05-21T14:29:31Z</time>
      </trkpt>
      <trkpt lat="49.02984" lon="6.90887">
        <ele>229.89</ele>
        <time>2020-05-21T14:29:46Z</time>
      </trkpt>
      <trkpt lat="49.02981" lon="6.90895">
        <ele>229.41</ele>
        <time>2020-05-21T14:30:01Z</time>
      </trkpt>
      <trkpt lat="49.02978" lon="6.90899">
        <ele>229.89</ele>
        <time>2020-05-21T14:30:16Z</time>
      </trkpt>
      <trkpt lat="49.02978" lon="6.90899">
        <ele>229.89</ele>
        <time>2020-05-21T14:30:31Z</time>
      </trkpt>
      <trkpt lat="49.02982" lon="6.90895">
        <ele>229.89</ele>
        <time>2020-05-21T14:30:46Z</time>
      </trkpt>
      <trkpt lat="49.02982" lon="6.90895">
        <ele>229.89</ele>
        <time>2020-05-21T14:31:01Z</time>
      </trkpt>
      <trkpt lat="49.02985" lon="6.90894">
        <ele>229.89</ele>
        <time>2020-05-21T14:31:16Z</time>
      </trkpt>
      <trkpt lat="49.02986" lon="6.90887">
        <ele>229.89</ele>
        <time>2020-05-21T14:31:31Z</time>
      </trkpt>
      <trkpt lat="49.02984" lon="6.90882">
        <ele>229.89</ele>
        <time>2020-05-21T14:31:46Z</time>
      </trkpt>
      <trkpt lat="49.02985" lon="6.90882">
        <ele>229.89</ele>
        <time>2020-05-21T14:32:01Z</time>
      </trkpt>
      <trkpt lat="49.02982" lon="6.90886">
        <ele>229.89</ele>
        <time>2020-05-21T14:32:16Z</time>
      </trkpt>
      <trkpt lat="49.02981" lon="6.90888">
        <ele>229.89</ele>
        <time>2020-05-21T14:32:31Z</time>
      </trkpt>
      <trkpt lat="49.02982" lon="6.9089">
        <ele>230.37</ele>
        <time>2020-05-21T14:32:46Z</time>
      </trkpt>
      <trkpt lat="49.02984" lon="6.90888">
        <ele>229.89</ele>
        <time>2020-05-21T14:33:01Z</time>
      </trkpt>
      <trkpt lat="49.02985" lon="6.9089">
        <ele>230.85</ele>
        <time>2020-05-21T14:33:16Z</time>
      </trkpt>
      <trkpt lat="49.02981" lon="6.90894">
        <ele>230.85</ele>
        <time>2020-05-21T14:33:31Z</time>
      </trkpt>
      <trkpt lat="49.02978" lon="6.90892">
        <ele>230.85</ele>
        <time>2020-05-21T14:33:46Z</time>
      </trkpt>
      <trkpt lat="49.0298" lon="6.90891">
        <ele>231.33</ele>
        <time>2020-05-21T14:34:01Z</time>
      </trkpt>
      <trkpt lat="49.02983" lon="6.90887">
        <ele>231.33</ele>
        <time>2020-05-21T14:34:16Z</time>
      </trkpt>
      <trkpt lat="49.02984" lon="6.90888">
        <ele>231.81</ele>
        <time>2020-05-21T14:34:31Z</time>
      </trkpt>
      <trkpt lat="49.02987" lon="6.90887">
        <ele>231.33</ele>
        <time>2020-05-21T14:34:46Z</time>
      </trkpt>
      <trkpt lat="49.02989" lon="6.90888">
        <ele>231.33</ele>
        <time>2020-05-21T14:35:01Z</time>
      </trkpt>
      <trkpt lat="49.02985" lon="6.9089">
        <ele>231.81</ele>
        <time>2020-05-21T14:35:16Z</time>
      </trkpt>
      <trkpt lat="49.02987" lon="6.90888">
        <ele>232.3</ele>
        <time>2020-05-21T14:35:31Z</time>
      </trkpt>
      <trkpt lat="49.02987" lon="6.90887">
        <ele>232.3</ele>
        <time>2020-05-21T14:35:46Z</time>
      </trkpt>
      <trkpt lat="49.02986" lon="6.9089">
        <ele>232.3</ele>
        <time>2020-05-21T14:36:01Z</time>
      </trkpt>
      <trkpt lat="49.02984" lon="6.90889">
        <ele>232.3</ele>
        <time>2020-05-21T14:36:16Z</time>
      </trkpt>
      <trkpt lat="49.02982" lon="6.90888">
        <ele>232.78</ele>
        <time>2020-05-21T14:36:31Z</time>
      </trkpt>
      <trkpt lat="49.02982" lon="6.90889">
        <ele>232.3</ele>
        <time>2020-05-21T14:36:46Z</time>
      </trkpt>
      <trkpt lat="49.02982" lon="6.90892">
        <ele>232.78</ele>
        <time>2020-05-21T14:37:01Z</time>
      </trkpt>
      <trkpt lat="49.0298" lon="6.90895">
        <ele>232.78</ele>
        <time>2020-05-21T14:37:16Z</time>
      </trkpt>
      <trkpt lat="49.02982" lon="6.90893">
        <ele>233.26</ele>
        <time>2020-05-21T14:37:31Z</time>
      </trkpt>
      <trkpt lat="49.02983" lon="6.90896">
        <ele>233.26</ele>
        <time>2020-05-21T14:37:46Z</time>
      </trkpt>
      <trkpt lat="49.02981" lon="6.90896">
        <ele>233.26</ele>
        <time>2020-05-21T14:38:01Z</time>
      </trkpt>
      <trkpt lat="49.0298" lon="6.90899">
        <ele>233.26</ele>
        <time>2020-05-21T14:38:16Z</time>
      </trkpt>
      <trkpt lat="49.0298" lon="6.90898">
        <ele>233.74</ele>
        <time>2020-05-21T14:38:31Z</time>
      </trkpt>
      <trkpt lat="49.0298" lon="6.90896">
        <ele>233.74</ele>
        <time>2020-05-21T14:38:46Z</time>
      </trkpt>
      <trkpt lat="49.02981" lon="6.90893">
        <ele>233.74</ele>
        <time>2020-05-21T14:39:01Z</time>
      </trkpt>
      <trkpt lat="49.02981" lon="6.90891">
        <ele>233.74</ele>
        <time>2020-05-21T14:39:16Z</time>
      </trkpt>
      <trkpt lat="49.0298" lon="6.90889">
        <ele>234.22</ele>
        <time>2020-05-21T14:39:31Z</time>
      </trkpt>
      <trkpt lat="49.02979" lon="6.90892">
        <ele>234.22</ele>
        <time>2020-05-21T14:39:46Z</time>
      </trkpt>
      <trkpt lat="49.02978" lon="6.90891">
        <ele>235.18</ele>
        <time>2020-05-21T14:40:01Z</time>
      </trkpt>
      <trkpt lat="49.02978" lon="6.9089">
        <ele>235.18</ele>
        <time>2020-05-21T14:40:16Z</time>
      </trkpt>
      <trkpt lat="49.02981" lon="6.90881">
        <ele>234.7</ele>
        <time>2020-05-21T14:40:31Z</time>
      </trkpt>
      <trkpt lat="49.02978" lon="6.90882">
        <ele>235.18</ele>
        <time>2020-05-21T14:40:46Z</time>
      </trkpt>
      <trkpt lat="49.02976" lon="6.90857">
        <ele>235.18</ele>
        <time>2020-05-21T14:41:01Z</time>
      </trkpt>
      <trkpt lat="49.02976" lon="6.9083">
        <ele>234.7</ele>
        <time>2020-05-21T14:41:16Z</time>
      </trkpt>
      <trkpt lat="49.02977" lon="6.908">
        <ele>235.18</ele>
        <time>2020-05-21T14:41:31Z</time>
      </trkpt>
      <trkpt lat="49.02975" lon="6.90772">
        <ele>234.7</ele>
        <time>2020-05-21T14:41:46Z</time>
      </trkpt>
      <trkpt lat="49.02975" lon="6.90753">
        <ele>234.7</ele>
        <time>2020-05-21T14:42:01Z</time>
      </trkpt>
      <trkpt lat="49.02977" lon="6.9075">
        <ele>234.7</ele>
        <time>2020-05-21T14:42:16Z</time>
      </trkpt>
      <trkpt lat="49.02975" lon="6.9073">
        <ele>234.7</ele>
        <time>2020-05-21T14:42:31Z</time>
      </trkpt>
      <trkpt lat="49.02973" lon="6.90703">
        <ele>234.7</ele>
        <time>2020-05-21T14:42:46Z</time>
      </trkpt>
      <trkpt lat="49.02973" lon="6.90676">
        <ele>234.7</ele>
        <time>2020-05-21T14:43:01Z</time>
      </trkpt>
      <trkpt lat="49.02973" lon="6.9065">
        <ele>235.18</ele>
        <time>2020-05-21T14:43:16Z</time>
      </trkpt>
      <trkpt lat="49.02973" lon="6.90637">
        <ele>235.18</ele>
        <time>2020-05-21T14:43:31Z</time>
      </trkpt>
      <trkpt lat="49.02973" lon="6.90611">
        <ele>234.7</ele>
        <time>2020-05-21T14:43:46Z</time>
      </trkpt>
      <trkpt lat="49.02975" lon="6.90583">
        <ele>234.7</ele>
        <time>2020-05-21T14:44:01Z</time>
      </trkpt>
      <trkpt lat="49.02991" lon="6.90578">
        <ele>235.18</ele>
        <time>2020-05-21T14:44:16Z</time>
      </trkpt>
      <trkpt lat="49.03002" lon="6.90603">
        <ele>234.7</ele>
        <time>2020-05-21T14:44:31Z</time>
      </trkpt>
      <trkpt lat="49.03007" lon="6.90627">
        <ele>234.22</ele>
        <time>2020-05-21T14:44:46Z</time>
      </trkpt>
      <trkpt lat="49.03013" lon="6.90653">
        <ele>234.22</ele>
        <time>2020-05-21T14:45:01Z</time>
      </trkpt>
      <trkpt lat="49.03024" lon="6.90673">
        <ele>234.22</ele>
        <time>2020-05-21T14:45:16Z</time>
      </trkpt>
      <trkpt lat="49.03035" lon="6.90693">
        <ele>234.22</ele>
        <time>2020-05-21T14:45:31Z</time>
      </trkpt>
      <trkpt lat="49.03048" lon="6.90712">
        <ele>234.22</ele>
        <time>2020-05-21T14:45:46Z</time>
      </trkpt>
      <trkpt lat="49.0306" lon="6.90729">
        <ele>234.7</ele>
        <time>2020-05-21T14:46:01Z</time>
      </trkpt>
      <trkpt lat="49.03071" lon="6.90744">
        <ele>234.7</ele>
        <time>2020-05-21T14:46:16Z</time>
      </trkpt>
      <trkpt lat="49.03084" lon="6.90755">
        <ele>234.22</ele>
        <time>2020-05-21T14:46:31Z</time>
      </trkpt>
      <trkpt lat="49.0307" lon="6.90772">
        <ele>233.74</ele>
        <time>2020-05-21T14:46:46Z</time>
      </trkpt>
      <trkpt lat="49.03068" lon="6.90786">
        <ele>234.22</ele>
        <time>2020-05-21T14:47:01Z</time>
      </trkpt>
      <trkpt lat="49.03068" lon="6.90785">
        <ele>234.22</ele>
        <time>2020-05-21T14:47:16Z</time>
      </trkpt>
      <trkpt lat="49.03077" lon="6.90774">
        <ele>233.74</ele>
        <time>2020-05-21T14:47:31Z</time>
      </trkpt>
      <trkpt lat="49.0308" lon="6.90753">
        <ele>234.22</ele>
        <time>2020-05-21T14:47:46Z</time>
      </trkpt>
      <trkpt lat="49.03096" lon="6.90742">
        <ele>234.22</ele>
        <time>2020-05-21T14:48:01Z</time>
      </trkpt>
      <trkpt lat="49.03108" lon="6.90732">
        <ele>234.22</ele>
        <time>2020-05-21T14:48:16Z</time>
      </trkpt>
      <trkpt lat="49.03117" lon="6.90706">
        <ele>233.74</ele>
        <time>2020-05-21T14:48:31Z</time>
      </trkpt>
      <trkpt lat="49.03123" lon="6.90681">
        <ele>233.74</ele>
        <time>2020-05-21T14:48:46Z</time>
      </trkpt>
      <trkpt lat="49.03125" lon="6.90659">
        <ele>233.74</ele>
        <time>2020-05-21T14:49:01Z</time>
      </trkpt>
      <trkpt lat="49.03126" lon="6.90631">
        <ele>233.74</ele>
        <time>2020-05-21T14:49:16Z</time>
      </trkpt>
      <trkpt lat="49.0313" lon="6.90604">
        <ele>233.74</ele>
        <time>2020-05-21T14:49:31Z</time>
      </trkpt>
      <trkpt lat="49.03133" lon="6.90578">
        <ele>233.74</ele>
        <time>2020-05-21T14:49:46Z</time>
      </trkpt>
      <trkpt lat="49.03144" lon="6.9056">
        <ele>235.18</ele>
        <time>2020-05-21T14:50:01Z</time>
      </trkpt>
      <trkpt lat="49.03161" lon="6.90562">
        <ele>235.18</ele>
        <time>2020-05-21T14:50:16Z</time>
      </trkpt>
      <trkpt lat="49.03167" lon="6.90589">
        <ele>234.7</ele>
        <time>2020-05-21T14:50:31Z</time>
      </trkpt>
      <trkpt lat="49.03174" lon="6.90612">
        <ele>234.22</ele>
        <time>2020-05-21T14:50:46Z</time>
      </trkpt>
      <trkpt lat="49.03179" lon="6.90632">
        <ele>235.18</ele>
        <time>2020-05-21T14:51:01Z</time>
      </trkpt>
      <trkpt lat="49.0318" lon="6.90638">
        <ele>234.22</ele>
        <time>2020-05-21T14:51:16Z</time>
      </trkpt>
      <trkpt lat="49.03179" lon="6.90665">
        <ele>234.7</ele>
        <time>2020-05-21T14:51:31Z</time>
      </trkpt>
      <trkpt lat="49.03177" lon="6.90691">
        <ele>234.7</ele>
        <time>2020-05-21T14:51:46Z</time>
      </trkpt>
      <trkpt lat="49.03176" lon="6.9072">
        <ele>234.22</ele>
        <time>2020-05-21T14:52:01Z</time>
      </trkpt>
      <trkpt lat="49.03174" lon="6.90738">
        <ele>233.74</ele>
        <time>2020-05-21T14:52:16Z</time>
      </trkpt>
      <trkpt lat="49.03173" lon="6.90764">
        <ele>233.26</ele>
        <time>2020-05-21T14:52:31Z</time>
      </trkpt>
      <trkpt lat="49.03172" lon="6.90791">
        <ele>233.74</ele>
        <time>2020-05-21T14:52:46Z</time>
      </trkpt>
      <trkpt lat="49.03172" lon="6.90822">
        <ele>233.74</ele>
        <time>2020-05-21T14:53:01Z</time>
      </trkpt>
      <trkpt lat="49.03171" lon="6.90847">
        <ele>233.26</ele>
        <time>2020-05-21T14:53:16Z</time>
      </trkpt>
      <trkpt lat="49.03171" lon="6.90871">
        <ele>233.26</ele>
        <time>2020-05-21T14:53:31Z</time>
      </trkpt>
      <trkpt lat="49.0317" lon="6.90896">
        <ele>232.78</ele>
        <time>2020-05-21T14:53:46Z</time>
      </trkpt>
      <trkpt lat="49.0317" lon="6.90922">
        <ele>232.78</ele>
        <time>2020-05-21T14:54:01Z</time>
      </trkpt>
      <trkpt lat="49.03168" lon="6.90946">
        <ele>232.78</ele>
        <time>2020-05-21T14:54:16Z</time>
      </trkpt>
      <trkpt lat="49.03168" lon="6.90972">
        <ele>232.78</ele>
        <time>2020-05-21T14:54:31Z</time>
      </trkpt>
      <trkpt lat="49.0317" lon="6.90995">
        <ele>232.78</ele>
        <time>2020-05-21T14:54:46Z</time>
      </trkpt>
      <trkpt lat="49.03171" lon="6.91004">
        <ele>232.78</ele>
        <time>2020-05-21T14:55:01Z</time>
      </trkpt>
      <trkpt lat="49.03184" lon="6.91014">
        <ele>232.78</ele>
        <time>2020-05-21T14:55:16Z</time>
      </trkpt>
      <trkpt lat="49.03199" lon="6.91004">
        <ele>233.26</ele>
        <time>2020-05-21T14:55:31Z</time>
      </trkpt>
      <trkpt lat="49.03213" lon="6.90998">
        <ele>232.78</ele>
        <time>2020-05-21T14:55:46Z</time>
      </trkpt>
      <trkpt lat="49.03217" lon="6.90983">
        <ele>233.26</ele>
        <time>2020-05-21T14:56:01Z</time>
      </trkpt>
      <trkpt lat="49.03228" lon="6.90963">
        <ele>232.78</ele>
        <time>2020-05-21T14:56:16Z</time>
      </trkpt>
      <trkpt lat="49.03241" lon="6.90955">
        <ele>232.78</ele>
        <time>2020-05-21T14:56:31Z</time>
      </trkpt>
      <trkpt lat="49.03249" lon="6.9097">
        <ele>233.26</ele>
        <time>2020-05-21T14:56:46Z</time>
      </trkpt>
      <trkpt lat="49.03248" lon="6.90979">
        <ele>232.78</ele>
        <time>2020-05-21T14:57:01Z</time>
      </trkpt>
      <trkpt lat="49.03245" lon="6.91003">
        <ele>232.78</ele>
        <time>2020-05-21T14:57:16Z</time>
      </trkpt>
      <trkpt lat="49.03238" lon="6.91026">
        <ele>232.78</ele>
        <time>2020-05-21T14:57:31Z</time>
      </trkpt>
      <trkpt lat="49.03236" lon="6.91026">
        <ele>232.78</ele>
        <time>2020-05-21T14:57:46Z</time>
      </trkpt>
      <trkpt lat="49.03231" lon="6.91044">
        <ele>232.78</ele>
        <time>2020-05-21T14:58:01Z</time>
      </trkpt>
      <trkpt lat="49.0322" lon="6.91064">
        <ele>232.3</ele>
        <time>2020-05-21T14:58:16Z</time>
      </trkpt>
      <trkpt lat="49.03209" lon="6.91074">
        <ele>232.3</ele>
        <time>2020-05-21T14:58:31Z</time>
      </trkpt>
      <trkpt lat="49.03199" lon="6.91095">
        <ele>232.3</ele>
        <time>2020-05-21T14:58:46Z</time>
      </trkpt>
      <trkpt lat="49.03189" lon="6.91114">
        <ele>231.81</ele>
        <time>2020-05-21T14:59:01Z</time>
      </trkpt>
      <trkpt lat="49.03188" lon="6.91122">
        <ele>232.3</ele>
        <time>2020-05-21T14:59:16Z</time>
      </trkpt>
      <trkpt lat="49.03177" lon="6.91141">
        <ele>232.3</ele>
        <time>2020-05-21T14:59:31Z</time>
      </trkpt>
      <trkpt lat="49.03167" lon="6.91165">
        <ele>232.3</ele>
        <time>2020-05-21T14:59:46Z</time>
      </trkpt>
      <trkpt lat="49.03166" lon="6.91193">
        <ele>232.3</ele>
        <time>2020-05-21T15:00:01Z</time>
      </trkpt>
      <trkpt lat="49.03164" lon="6.91219">
        <ele>232.3</ele>
        <time>2020-05-21T15:00:16Z</time>
      </trkpt>
      <trkpt lat="49.03163" lon="6.91246">
        <ele>231.81</ele>
        <time>2020-05-21T15:00:31Z</time>
      </trkpt>
      <trkpt lat="49.03161" lon="6.9127">
        <ele>231.81</ele>
        <time>2020-05-21T15:00:46Z</time>
      </trkpt>
      <trkpt lat="49.03157" lon="6.91297">
        <ele>231.81</ele>
        <time>2020-05-21T15:01:01Z</time>
      </trkpt>
      <trkpt lat="49.03151" lon="6.91321">
        <ele>232.3</ele>
        <time>2020-05-21T15:01:16Z</time>
      </trkpt>
      <trkpt lat="49.03146" lon="6.91347">
        <ele>231.81</ele>
        <time>2020-05-21T15:01:31Z</time>
      </trkpt>
      <trkpt lat="49.03142" lon="6.91373">
        <ele>231.81</ele>
        <time>2020-05-21T15:01:46Z</time>
      </trkpt>
      <trkpt lat="49.03137" lon="6.91398">
        <ele>231.81</ele>
        <time>2020-05-21T15:02:01Z</time>
      </trkpt>
      <trkpt lat="49.03134" lon="6.91423">
        <ele>231.33</ele>
        <time>2020-05-21T15:02:16Z</time>
      </trkpt>
      <trkpt lat="49.03132" lon="6.91435">
        <ele>231.33</ele>
        <time>2020-05-21T15:02:31Z</time>
      </trkpt>
      <trkpt lat="49.03127" lon="6.91459">
        <ele>231.81</ele>
        <time>2020-05-21T15:02:46Z</time>
      </trkpt>
      <trkpt lat="49.03127" lon="6.91484">
        <ele>231.81</ele>
        <time>2020-05-21T15:03:01Z</time>
      </trkpt>
      <trkpt lat="49.03123" lon="6.91509">
        <ele>231.33</ele>
        <time>2020-05-21T15:03:16Z</time>
      </trkpt>
      <trkpt lat="49.03119" lon="6.91533">
        <ele>231.81</ele>
        <time>2020-05-21T15:03:31Z</time>
      </trkpt>
      <trkpt lat="49.0311" lon="6.91533">
        <ele>230.85</ele>
        <time>2020-05-21T15:03:46Z</time>
      </trkpt>
      <trkpt lat="49.0311" lon="6.91533">
        <ele>230.85</ele>
        <time>2020-05-21T15:04:01Z</time>
      </trkpt>
      <trkpt lat="49.03114" lon="6.91539">
        <ele>231.81</ele>
        <time>2020-05-21T15:04:16Z</time>
      </trkpt>
      <trkpt lat="49.03111" lon="6.91566">
        <ele>231.81</ele>
        <time>2020-05-21T15:04:31Z</time>
      </trkpt>
      <trkpt lat="49.03105" lon="6.91589">
        <ele>231.81</ele>
        <time>2020-05-21T15:04:46Z</time>
      </trkpt>
      <trkpt lat="49.03097" lon="6.91607">
        <ele>231.81</ele>
        <time>2020-05-21T15:05:01Z</time>
      </trkpt>
      <trkpt lat="49.03084" lon="6.91628">
        <ele>231.33</ele>
        <time>2020-05-21T15:05:16Z</time>
      </trkpt>
      <trkpt lat="49.0308" lon="6.91624">
        <ele>230.85</ele>
        <time>2020-05-21T15:05:31Z</time>
      </trkpt>
      <trkpt lat="49.03081" lon="6.91629">
        <ele>231.33</ele>
        <time>2020-05-21T15:05:46Z</time>
      </trkpt>
      <trkpt lat="49.0308" lon="6.91636">
        <ele>231.81</ele>
        <time>2020-05-21T15:06:01Z</time>
      </trkpt>
      <trkpt lat="49.0308" lon="6.9164">
        <ele>231.33</ele>
        <time>2020-05-21T15:06:16Z</time>
      </trkpt>
      <trkpt lat="49.03078" lon="6.91661">
        <ele>231.81</ele>
        <time>2020-05-21T15:06:31Z</time>
      </trkpt>
      <trkpt lat="49.0307" lon="6.91688">
        <ele>230.85</ele>
        <time>2020-05-21T15:06:46Z</time>
      </trkpt>
      <trkpt lat="49.03065" lon="6.91712">
        <ele>230.85</ele>
        <time>2020-05-21T15:07:01Z</time>
      </trkpt>
      <trkpt lat="49.03059" lon="6.91721">
        <ele>231.33</ele>
        <time>2020-05-21T15:07:16Z</time>
      </trkpt>
      <trkpt lat="49.03055" lon="6.91745">
        <ele>231.33</ele>
        <time>2020-05-21T15:07:31Z</time>
      </trkpt>
      <trkpt lat="49.03053" lon="6.91768">
        <ele>231.33</ele>
        <time>2020-05-21T15:07:46Z</time>
      </trkpt>
      <trkpt lat="49.03048" lon="6.91793">
        <ele>231.33</ele>
        <time>2020-05-21T15:08:01Z</time>
      </trkpt>
      <trkpt lat="49.03043" lon="6.91817">
        <ele>231.81</ele>
        <time>2020-05-21T15:08:16Z</time>
      </trkpt>
      <trkpt lat="49.03037" lon="6.91842">
        <ele>230.85</ele>
        <time>2020-05-21T15:08:31Z</time>
      </trkpt>
      <trkpt lat="49.03034" lon="6.9187">
        <ele>231.33</ele>
        <time>2020-05-21T15:08:46Z</time>
      </trkpt>
      <trkpt lat="49.03025" lon="6.91889">
        <ele>230.85</ele>
        <time>2020-05-21T15:09:01Z</time>
      </trkpt>
      <trkpt lat="49.03024" lon="6.91908">
        <ele>231.33</ele>
        <time>2020-05-21T15:09:16Z</time>
      </trkpt>
      <trkpt lat="49.03031" lon="6.91924">
        <ele>232.3</ele>
        <time>2020-05-21T15:09:31Z</time>
      </trkpt>
      <trkpt lat="49.03038" lon="6.91945">
        <ele>231.81</ele>
        <time>2020-05-21T15:09:46Z</time>
      </trkpt>
      <trkpt lat="49.03033" lon="6.91966">
        <ele>232.3</ele>
        <time>2020-05-21T15:10:01Z</time>
      </trkpt>
      <trkpt lat="49.03018" lon="6.91974">
        <ele>231.81</ele>
        <time>2020-05-21T15:10:16Z</time>
      </trkpt>
      <trkpt lat="49.03005" lon="6.91989">
        <ele>232.3</ele>
        <time>2020-05-21T15:10:31Z</time>
      </trkpt>
      <trkpt lat="49.02993" lon="6.92009">
        <ele>231.81</ele>
        <time>2020-05-21T15:10:46Z</time>
      </trkpt>
      <trkpt lat="49.02986" lon="6.92031">
        <ele>231.81</ele>
        <time>2020-05-21T15:11:01Z</time>
      </trkpt>
      <trkpt lat="49.02978" lon="6.92039">
        <ele>231.81</ele>
        <time>2020-05-21T15:11:16Z</time>
      </trkpt>
      <trkpt lat="49.02975" lon="6.92039">
        <ele>232.3</ele>
        <time>2020-05-21T15:11:31Z</time>
      </trkpt>
      <trkpt lat="49.02978" lon="6.9206">
        <ele>232.78</ele>
        <time>2020-05-21T15:11:46Z</time>
      </trkpt>
      <trkpt lat="49.02973" lon="6.92081">
        <ele>232.78</ele>
        <time>2020-05-21T15:12:01Z</time>
      </trkpt>
      <trkpt lat="49.02971" lon="6.92103">
        <ele>232.78</ele>
        <time>2020-05-21T15:12:16Z</time>
      </trkpt>
      <trkpt lat="49.02967" lon="6.92127">
        <ele>232.78</ele>
        <time>2020-05-21T15:12:31Z</time>
      </trkpt>
      <trkpt lat="49.02964" lon="6.92149">
        <ele>232.78</ele>
        <time>2020-05-21T15:12:46Z</time>
      </trkpt>
      <trkpt lat="49.02958" lon="6.92148">
        <ele>232.78</ele>
        <time>2020-05-21T15:13:01Z</time>
      </trkpt>
      <trkpt lat="49.02955" lon="6.92164">
        <ele>232.78</ele>
        <time>2020-05-21T15:13:16Z</time>
      </trkpt>
      <trkpt lat="49.0296" lon="6.92189">
        <ele>232.78</ele>
        <time>2020-05-21T15:13:31Z</time>
      </trkpt>
      <trkpt lat="49.02969" lon="6.92206">
        <ele>232.78</ele>
        <time>2020-05-21T15:13:46Z</time>
      </trkpt>
      <trkpt lat="49.02978" lon="6.92229">
        <ele>232.78</ele>
        <time>2020-05-21T15:14:01Z</time>
      </trkpt>
      <trkpt lat="49.0299" lon="6.92248">
        <ele>231.81</ele>
        <time>2020-05-21T15:14:16Z</time>
      </trkpt>
      <trkpt lat="49.03003" lon="6.92254">
        <ele>231.81</ele>
        <time>2020-05-21T15:14:31Z</time>
      </trkpt>
      <trkpt lat="49.03009" lon="6.92248">
        <ele>231.33</ele>
        <time>2020-05-21T15:14:46Z</time>
      </trkpt>
      <trkpt lat="49.03007" lon="6.92243">
        <ele>231.81</ele>
        <time>2020-05-21T15:15:01Z</time>
      </trkpt>
      <trkpt lat="49.03012" lon="6.92239">
        <ele>231.33</ele>
        <time>2020-05-21T15:15:16Z</time>
      </trkpt>
      <trkpt lat="49.03019" lon="6.92238">
        <ele>231.33</ele>
        <time>2020-05-21T15:15:31Z</time>
      </trkpt>
      <trkpt lat="49.03024" lon="6.92244">
        <ele>230.37</ele>
        <time>2020-05-21T15:15:46Z</time>
      </trkpt>
      <trkpt lat="49.03025" lon="6.92242">
        <ele>230.37</ele>
        <time>2020-05-21T15:16:01Z</time>
      </trkpt>
      <trkpt lat="49.03027" lon="6.92241">
        <ele>231.33</ele>
        <time>2020-05-21T15:16:16Z</time>
      </trkpt>
      <trkpt lat="49.03028" lon="6.92239">
        <ele>231.33</ele>
        <time>2020-05-21T15:16:31Z</time>
      </trkpt>
      <trkpt lat="49.03022" lon="6.92239">
        <ele>231.33</ele>
        <time>2020-05-21T15:16:46Z</time>
      </trkpt>
      <trkpt lat="49.03019" lon="6.92236">
        <ele>231.33</ele>
        <time>2020-05-21T15:17:01Z</time>
      </trkpt>
      <trkpt lat="49.03021" lon="6.92232">
        <ele>231.33</ele>
        <time>2020-05-21T15:17:16Z</time>
      </trkpt>
      <trkpt lat="49.03025" lon="6.92233">
        <ele>231.33</ele>
        <time>2020-05-21T15:17:31Z</time>
      </trkpt>
      <trkpt lat="49.03025" lon="6.92233">
        <ele>231.33</ele>
        <time>2020-05-21T15:17:46Z</time>
      </trkpt>
      <trkpt lat="49.0303" lon="6.92224">
        <ele>231.33</ele>
        <time>2020-05-21T15:18:01Z</time>
      </trkpt>
      <trkpt lat="49.03038" lon="6.92212">
        <ele>231.33</ele>
        <time>2020-05-21T15:18:16Z</time>
      </trkpt>
      <trkpt lat="49.03048" lon="6.92193">
        <ele>231.33</ele>
        <time>2020-05-21T15:18:31Z</time>
      </trkpt>
      <trkpt lat="49.03059" lon="6.92172">
        <ele>230.85</ele>
        <time>2020-05-21T15:18:46Z</time>
      </trkpt>
      <trkpt lat="49.03071" lon="6.92148">
        <ele>230.37</ele>
        <time>2020-05-21T15:19:01Z</time>
      </trkpt>
      <trkpt lat="49.03083" lon="6.92127">
        <ele>230.37</ele>
        <time>2020-05-21T15:19:16Z</time>
      </trkpt>
      <trkpt lat="49.03093" lon="6.92111">
        <ele>230.37</ele>
        <time>2020-05-21T15:19:31Z</time>
      </trkpt>
      <trkpt lat="49.03106" lon="6.92093">
        <ele>230.85</ele>
        <time>2020-05-21T15:19:46Z</time>
      </trkpt>
      <trkpt lat="49.03119" lon="6.92095">
        <ele>230.37</ele>
        <time>2020-05-21T15:20:01Z</time>
      </trkpt>
      <trkpt lat="49.03123" lon="6.9212">
        <ele>230.37</ele>
        <time>2020-05-21T15:20:16Z</time>
      </trkpt>
      <trkpt lat="49.03124" lon="6.92143">
        <ele>229.89</ele>
        <time>2020-05-21T15:20:31Z</time>
      </trkpt>
      <trkpt lat="49.03129" lon="6.92163">
        <ele>229.41</ele>
        <time>2020-05-21T15:20:46Z</time>
      </trkpt>
      <trkpt lat="49.03132" lon="6.92187">
        <ele>229.41</ele>
        <time>2020-05-21T15:21:01Z</time>
      </trkpt>
      <trkpt lat="49.03129" lon="6.92216">
        <ele>229.41</ele>
        <time>2020-05-21T15:21:16Z</time>
      </trkpt>
      <trkpt lat="49.03122" lon="6.92243">
        <ele>229.41</ele>
        <time>2020-05-21T15:21:31Z</time>
      </trkpt>
      <trkpt lat="49.03115" lon="6.92265">
        <ele>229.41</ele>
        <time>2020-05-21T15:21:46Z</time>
      </trkpt>
      <trkpt lat="49.03105" lon="6.92285">
        <ele>229.41</ele>
        <time>2020-05-21T15:22:01Z</time>
      </trkpt>
      <trkpt lat="49.03095" lon="6.92307">
        <ele>229.41</ele>
        <time>2020-05-21T15:22:16Z</time>
      </trkpt>
      <trkpt lat="49.03085" lon="6.92328">
        <ele>228.93</ele>
        <time>2020-05-21T15:22:31Z</time>
      </trkpt>
      <trkpt lat="49.03078" lon="6.92352">
        <ele>229.89</ele>
        <time>2020-05-21T15:22:46Z</time>
      </trkpt>
      <trkpt lat="49.03072" lon="6.92375">
        <ele>228.93</ele>
        <time>2020-05-21T15:23:01Z</time>
      </trkpt>
      <trkpt lat="49.03067" lon="6.92396">
        <ele>229.41</ele>
        <time>2020-05-21T15:23:16Z</time>
      </trkpt>
      <trkpt lat="49.03061" lon="6.92418">
        <ele>229.89</ele>
        <time>2020-05-21T15:23:31Z</time>
      </trkpt>
      <trkpt lat="49.03055" lon="6.92439">
        <ele>229.41</ele>
        <time>2020-05-21T15:23:46Z</time>
      </trkpt>
      <trkpt lat="49.0305" lon="6.92459">
        <ele>229.41</ele>
        <time>2020-05-21T15:24:01Z</time>
      </trkpt>
      <trkpt lat="49.03051" lon="6.92483">
        <ele>229.41</ele>
        <time>2020-05-21T15:24:16Z</time>
      </trkpt>
      <trkpt lat="49.03058" lon="6.92507">
        <ele>229.41</ele>
        <time>2020-05-21T15:24:31Z</time>
      </trkpt>
      <trkpt lat="49.03064" lon="6.92529">
        <ele>229.89</ele>
        <time>2020-05-21T15:24:46Z</time>
      </trkpt>
      <trkpt lat="49.03071" lon="6.92552">
        <ele>229.89</ele>
        <time>2020-05-21T15:25:01Z</time>
      </trkpt>
      <trkpt lat="49.03079" lon="6.92574">
        <ele>229.89</ele>
        <time>2020-05-21T15:25:16Z</time>
      </trkpt>
      <trkpt lat="49.03088" lon="6.92597">
        <ele>229.89</ele>
        <time>2020-05-21T15:25:31Z</time>
      </trkpt>
      <trkpt lat="49.03095" lon="6.9262">
        <ele>229.41</ele>
        <time>2020-05-21T15:25:46Z</time>
      </trkpt>
      <trkpt lat="49.031" lon="6.92637">
        <ele>229.41</ele>
        <time>2020-05-21T15:26:01Z</time>
      </trkpt>
      <trkpt lat="49.03108" lon="6.92659">
        <ele>228.93</ele>
        <time>2020-05-21T15:26:16Z</time>
      </trkpt>
      <trkpt lat="49.03115" lon="6.92684">
        <ele>229.41</ele>
        <time>2020-05-21T15:26:31Z</time>
      </trkpt>
      <trkpt lat="49.03124" lon="6.927">
        <ele>229.41</ele>
        <time>2020-05-21T15:26:46Z</time>
      </trkpt>
      <trkpt lat="49.0313" lon="6.92726">
        <ele>229.41</ele>
        <time>2020-05-21T15:27:01Z</time>
      </trkpt>
      <trkpt lat="49.03134" lon="6.9275">
        <ele>229.41</ele>
        <time>2020-05-21T15:27:16Z</time>
      </trkpt>
      <trkpt lat="49.03135" lon="6.92771">
        <ele>230.37</ele>
        <time>2020-05-21T15:27:31Z</time>
      </trkpt>
      <trkpt lat="49.0313" lon="6.9277">
        <ele>230.37</ele>
        <time>2020-05-21T15:27:46Z</time>
      </trkpt>
      <trkpt lat="49.0313" lon="6.92771">
        <ele>230.37</ele>
        <time>2020-05-21T15:28:01Z</time>
      </trkpt>
      <trkpt lat="49.03131" lon="6.9277">
        <ele>229.89</ele>
        <time>2020-05-21T15:28:16Z</time>
      </trkpt>
      <trkpt lat="49.03131" lon="6.92767">
        <ele>229.89</ele>
        <time>2020-05-21T15:28:31Z</time>
      </trkpt>
      <trkpt lat="49.03129" lon="6.92764">
        <ele>229.41</ele>
        <time>2020-05-21T15:28:46Z</time>
      </trkpt>
      <trkpt lat="49.0312" lon="6.9278">
        <ele>230.37</ele>
        <time>2020-05-21T15:29:01Z</time>
      </trkpt>
      <trkpt lat="49.0312" lon="6.92779">
        <ele>230.37</ele>
        <time>2020-05-21T15:29:16Z</time>
      </trkpt>
      <trkpt lat="49.03117" lon="6.92784">
        <ele>230.37</ele>
        <time>2020-05-21T15:29:31Z</time>
      </trkpt>
      <trkpt lat="49.03102" lon="6.92796">
        <ele>229.89</ele>
        <time>2020-05-21T15:29:46Z</time>
      </trkpt>
      <trkpt lat="49.03087" lon="6.92808">
        <ele>230.37</ele>
        <time>2020-05-21T15:30:01Z</time>
      </trkpt>
      <trkpt lat="49.03073" lon="6.92819">
        <ele>230.37</ele>
        <time>2020-05-21T15:30:16Z</time>
      </trkpt>
      <trkpt lat="49.03058" lon="6.9283">
        <ele>230.37</ele>
        <time>2020-05-21T15:30:31Z</time>
      </trkpt>
      <trkpt lat="49.03043" lon="6.92843">
        <ele>230.37</ele>
        <time>2020-05-21T15:30:46Z</time>
      </trkpt>
      <trkpt lat="49.0303" lon="6.92841">
        <ele>230.37</ele>
        <time>2020-05-21T15:31:01Z</time>
      </trkpt>
      <trkpt lat="49.03025" lon="6.92819">
        <ele>229.89</ele>
        <time>2020-05-21T15:31:16Z</time>
      </trkpt>
      <trkpt lat="49.03018" lon="6.92795">
        <ele>229.41</ele>
        <time>2020-05-21T15:31:31Z</time>
      </trkpt>
      <trkpt lat="49.0301" lon="6.92773">
        <ele>229.89</ele>
        <time>2020-05-21T15:31:46Z</time>
      </trkpt>
      <trkpt lat="49.03001" lon="6.92748">
        <ele>229.89</ele>
        <time>2020-05-21T15:32:01Z</time>
      </trkpt>
      <trkpt lat="49.02992" lon="6.92727">
        <ele>229.41</ele>
        <time>2020-05-21T15:32:16Z</time>
      </trkpt>
      <trkpt lat="49.02982" lon="6.92709">
        <ele>229.89</ele>
        <time>2020-05-21T15:32:31Z</time>
      </trkpt>
      <trkpt lat="49.02972" lon="6.92688">
        <ele>229.41</ele>
        <time>2020-05-21T15:32:46Z</time>
      </trkpt>
      <trkpt lat="49.02961" lon="6.92668">
        <ele>229.41</ele>
        <time>2020-05-21T15:33:01Z</time>
      </trkpt>
      <trkpt lat="49.02951" lon="6.92649">
        <ele>229.41</ele>
        <time>2020-05-21T15:33:16Z</time>
      </trkpt>
      <trkpt lat="49.02939" lon="6.92639">
        <ele>229.89</ele>
        <time>2020-05-21T15:33:31Z</time>
      </trkpt>
      <trkpt lat="49.02934" lon="6.92647">
        <ele>230.85</ele>
        <time>2020-05-21T15:33:46Z</time>
      </trkpt>
      <trkpt lat="49.02931" lon="6.92649">
        <ele>230.85</ele>
        <time>2020-05-21T15:34:01Z</time>
      </trkpt>
      <trkpt lat="49.02927" lon="6.92653">
        <ele>230.85</ele>
        <time>2020-05-21T15:34:16Z</time>
      </trkpt>
      <trkpt lat="49.02919" lon="6.92669">
        <ele>232.3</ele>
        <time>2020-05-21T15:34:31Z</time>
      </trkpt>
      <trkpt lat="49.02907" lon="6.92681">
        <ele>233.26</ele>
        <time>2020-05-21T15:34:46Z</time>
      </trkpt>
      <trkpt lat="49.02895" lon="6.92693">
        <ele>234.7</ele>
        <time>2020-05-21T15:35:01Z</time>
      </trkpt>
      <trkpt lat="49.02884" lon="6.92705">
        <ele>236.62</ele>
        <time>2020-05-21T15:35:16Z</time>
      </trkpt>
      <trkpt lat="49.0287" lon="6.92716">
        <ele>237.58</ele>
        <time>2020-05-21T15:35:31Z</time>
      </trkpt>
      <trkpt lat="49.02862" lon="6.92733">
        <ele>239.02</ele>
        <time>2020-05-21T15:35:46Z</time>
      </trkpt>
      <trkpt lat="49.02856" lon="6.92723">
        <ele>239.02</ele>
        <time>2020-05-21T15:36:01Z</time>
      </trkpt>
      <trkpt lat="49.02854" lon="6.9272">
        <ele>239.02</ele>
        <time>2020-05-21T15:36:16Z</time>
      </trkpt>
      <trkpt lat="49.02844" lon="6.92705">
        <ele>239.02</ele>
        <time>2020-05-21T15:36:31Z</time>
      </trkpt>
      <trkpt lat="49.02836" lon="6.92684">
        <ele>238.54</ele>
        <time>2020-05-21T15:36:46Z</time>
      </trkpt>
      <trkpt lat="49.0283" lon="6.92664">
        <ele>238.06</ele>
        <time>2020-05-21T15:37:01Z</time>
      </trkpt>
      <trkpt lat="49.02822" lon="6.92643">
        <ele>238.06</ele>
        <time>2020-05-21T15:37:16Z</time>
      </trkpt>
      <trkpt lat="49.02814" lon="6.92626">
        <ele>237.58</ele>
        <time>2020-05-21T15:37:31Z</time>
      </trkpt>
      <trkpt lat="49.02807" lon="6.92605">
        <ele>238.06</ele>
        <time>2020-05-21T15:37:46Z</time>
      </trkpt>
      <trkpt lat="49.028" lon="6.92588">
        <ele>237.1</ele>
        <time>2020-05-21T15:38:01Z</time>
      </trkpt>
      <trkpt lat="49.028" lon="6.92589">
        <ele>237.58</ele>
        <time>2020-05-21T15:38:16Z</time>
      </trkpt>
      <trkpt lat="49.028" lon="6.92589">
        <ele>237.1</ele>
        <time>2020-05-21T15:38:31Z</time>
      </trkpt>
      <trkpt lat="49.02801" lon="6.92586">
        <ele>237.1</ele>
        <time>2020-05-21T15:38:46Z</time>
      </trkpt>
      <trkpt lat="49.028" lon="6.92585">
        <ele>237.1</ele>
        <time>2020-05-21T15:39:01Z</time>
      </trkpt>
    </trkseg>
  </trk>
</gpx>